^^
Station Historical Data
Daily Summary for April 22, 2017 Units:  English    Metric   Both
« Previous Day
Next Day »
Daily Weekly Monthly Yearly Custom
  High: Low: Average:
Temperature: 57.4 °F 37.3 °F 46.2 °F
Dew Point: 39.4 °F 29.7 °F 35.2 °F
Humidity: 89% 35% 68%
Wind Speed: 11.5mph 0.0mph 3.8mph
Wind Gust: 11.5mph - -
Wind- - SSE
Pressure: 30.26 in 30.02 in -
Precipitation: 0.18 in    
Historical Graphs
 
 
Tabular Data for April 22, 2017
Time Temperature Dew Point Pressure Wind Wind Speed Wind Gust Humidity Rainfall Rate (Hourly) solar Conditions
00:03 40.4 °F 36.8 °F 30.18 in SE 2.3 mph 2.3 mph 87% 0.00 in WeatherDisplay:10.37 W/m2 RA
00:08 40.4 °F 37.1 °F 30.18 in SE 1.2 mph 1.2 mph 88% 0.00 in WeatherDisplay:10.37 W/m2 RA
00:13 40.4 °F 37.1 °F 30.18 in Calm     88% 0.01 in WeatherDisplay:10.37 W/m2 RA
00:18 40.4 °F 37.1 °F 30.19 in SE 1.2 mph   88% 0.01 in WeatherDisplay:10.37 W/m2 RA
00:23 40.5 °F 37.2 °F 30.17 in Calm     88% 0.01 in WeatherDisplay:10.37 W/m2
00:28 40.4 °F 36.8 °F 30.18 in SE 1.2 mph   87% 0.01 in WeatherDisplay:10.37 W/m2 CLR
00:33 40.4 °F 37.1 °F 30.19 in SE 1.2 mph 1.2 mph 88% 0.01 in WeatherDisplay:10.37 W/m2 CLR
00:38 40.5 °F 37.2 °F 30.18 in SE 1.2 mph 1.2 mph 88% 0.01 in WeatherDisplay:10.37 W/m2 CLR
00:43 40.5 °F 36.9 °F 30.18 in SE 3.5 mph 3.5 mph 87% 0.01 in WeatherDisplay:10.37 W/m2 CLR
00:48 40.5 °F 36.9 °F 30.18 in SE 3.0 mph 3.0 mph 87% 0.01 in WeatherDisplay:10.37 W/m2 CLR
00:53 40.5 °F 36.6 °F 30.18 in SSE 3.5 mph 3.5 mph 86% 0.01 in WeatherDisplay:10.37 W/m2 CLR
00:58 40.5 °F 36.6 °F 30.18 in SSE 3.5 mph 3.5 mph 86% 0.02 in WeatherDisplay:10.37 W/m2 RA
01:03 40.5 °F 36.6 °F 30.18 in SSE 3.5 mph 3.5 mph 86% 0.02 in WeatherDisplay:10.37 W/m2 RA
01:08 40.5 °F 36.9 °F 30.17 in SSE 2.3 mph 2.3 mph 87% 0.02 in WeatherDisplay:10.37 W/m2 CLR
01:13 40.5 °F 36.9 °F 30.17 in Calm     87% 0.01 in WeatherDisplay:10.37 W/m2 CLR
01:14 40.5 °F 36.9 °F 30.17 in Calm     87% 0.01 in WeatherDisplay:10.37 W/m2 CLR
01:19 40.5 °F 36.9 °F 30.17 in SSE 2.0 mph 2.0 mph 87% 0.01 in WeatherDisplay:10.37 W/m2 CLR
01:24 40.4 °F 36.8 °F 30.17 in SSE 3.5 mph 3.5 mph 87% 0.01 in WeatherDisplay:10.37 W/m2 CLR
01:29 40.4 °F 36.8 °F 30.18 in SSE 2.3 mph 2.3 mph 87% 0.01 in WeatherDisplay:10.37 W/m2 CLR
01:34 40.4 °F 36.8 °F 30.17 in SSE 2.3 mph 2.3 mph 87% 0.01 in WeatherDisplay:10.37 W/m2 CLR
01:39 40.4 °F 37.1 °F 30.18 in SSE 2.0 mph 2.0 mph 88% 0.02 in WeatherDisplay:10.37 W/m2 RA
01:44 40.4 °F 37.1 °F 30.18 in SSE 3.5 mph 3.5 mph 88% 0.02 in WeatherDisplay:10.37 W/m2 RA
01:49 40.4 °F 37.1 °F 30.17 in SSE 2.3 mph 2.3 mph 88% 0.02 in WeatherDisplay:10.37 W/m2 CLR
01:54 40.4 °F 37.1 °F 30.17 in SSE 1.2 mph 1.2 mph 88% 0.03 in WeatherDisplay:10.37 W/m2 RA
01:59 40.3 °F 37.0 °F 30.17 in SSE 3.0 mph 3.0 mph 88% 0.02 in WeatherDisplay:10.37 W/m2 RA
02:04 40.3 °F 37.0 °F 30.15 in SSE 3.5 mph 3.5 mph 88% 0.02 in WeatherDisplay:10.37 W/m2 CLR
02:09 40.3 °F 37.0 °F 30.15 in SSE 2.3 mph 2.3 mph 88% 0.02 in WeatherDisplay:10.37 W/m2 CLR
02:14 40.3 °F 37.0 °F 30.15 in SSE 3.5 mph 3.5 mph 88% 0.02 in WeatherDisplay:10.37 W/m2 CLR
02:19 40.3 °F 37.0 °F 30.14 in SSE 3.5 mph 3.5 mph 88% 0.02 in WeatherDisplay:10.37 W/m2 CLR
02:24 40.4 °F 37.4 °F 30.14 in SSE 2.3 mph 2.3 mph 89% 0.02 in WeatherDisplay:10.37 W/m2 CLR
02:29 40.3 °F 37.3 °F 30.14 in SSE 3.5 mph 3.5 mph 89% 0.03 in WeatherDisplay:10.37 W/m2 RA
02:34 40.3 °F 37.0 °F 30.14 in SSE 3.5 mph 3.5 mph 88% 0.03 in WeatherDisplay:10.37 W/m2 RA
02:39 40.3 °F 37.0 °F 30.14 in SSE 3.5 mph 3.5 mph 88% 0.02 in WeatherDisplay:10.37 W/m2 CLR
02:44 40.3 °F 37.0 °F 30.15 in SSE 3.0 mph 3.0 mph 88% 0.03 in WeatherDisplay:10.37 W/m2 RA
02:49 40.4 °F 37.4 °F 30.15 in SSE 3.5 mph 3.5 mph 89% 0.03 in WeatherDisplay:10.37 W/m2 RA
02:54 40.4 °F 37.1 °F 30.15 in ESE 4.6 mph 4.6 mph 88% 0.02 in WeatherDisplay:10.37 W/m2
02:59 40.4 °F 37.4 °F 30.14 in ESE 3.5 mph 3.5 mph 89% 0.02 in WeatherDisplay:10.37 W/m2 CLR
03:04 40.4 °F 37.4 °F 30.14 in ESE 2.3 mph 2.3 mph 89% 0.03 in WeatherDisplay:10.37 W/m2 RA
03:09 40.3 °F 36.7 °F 30.15 in ESE 3.5 mph 3.5 mph 87% 0.03 in WeatherDisplay:10.37 W/m2 RA
03:14 40.2 °F 36.6 °F 30.15 in ESE 3.5 mph 3.5 mph 87% 0.04 in WeatherDisplay:10.37 W/m2 RA
03:19 40.1 °F 36.5 °F 30.15 in ESE 1.2 mph 1.2 mph 87% 0.04 in WeatherDisplay:10.37 W/m2 RA
03:24 40.1 °F 36.5 °F 30.15 in ESE 3.5 mph 3.5 mph 87% 0.04 in WeatherDisplay:10.37 W/m2 CLR
03:29 40.1 °F 36.5 °F 30.16 in ESE 3.5 mph 3.5 mph 87% 0.04 in WeatherDisplay:10.37 W/m2 RA
03:34 40.0 °F 36.2 °F 30.16 in Calm     86% 0.04 in WeatherDisplay:10.37 W/m2 RA
03:39 40.0 °F 36.2 °F 30.16 in ESE 1.2 mph 1.2 mph 86% 0.05 in WeatherDisplay:10.37 W/m2 RA
03:44 39.9 °F 36.1 °F 30.16 in ESE 2.3 mph 2.3 mph 86% 0.05 in WeatherDisplay:10.37 W/m2 RA
03:49 39.7 °F 35.6 °F 30.16 in ESE 3.5 mph 3.5 mph 85% 0.06 in WeatherDisplay:10.37 W/m2 RA
03:54 39.6 °F 35.5 °F 30.16 in ESE 2.3 mph 2.3 mph 85% 0.06 in WeatherDisplay:10.37 W/m2 RA
03:59 39.5 °F 35.7 °F 30.16 in SE 3.5 mph 3.5 mph 86% 0.06 in WeatherDisplay:10.37 W/m2
04:04 39.4 °F 35.6 °F 30.18 in SE 6.9 mph 6.9 mph 86% 0.05 in WeatherDisplay:10.37 W/m2 CLR
04:09 39.4 °F 35.6 °F 30.18 in ESE 6.0 mph 6.0 mph 86% 0.05 in WeatherDisplay:10.37 W/m2 CLR
04:14 39.2 °F 35.4 °F 30.18 in ESE 3.5 mph 3.5 mph 86% 0.04 in WeatherDisplay:10.37 W/m2 CLR
04:19 39.1 °F 35.3 °F 30.18 in ESE 3.5 mph 3.5 mph 86% 0.04 in WeatherDisplay:10.37 W/m2 CLR
04:24 39.1 °F 35.3 °F 30.18 in SE 3.5 mph 3.5 mph 86% 0.05 in WeatherDisplay:10.37 W/m2 RA
04:26 39.1 °F 35.3 °F 30.18 in SE 3.5 mph 3.5 mph 86% 0.05 in WeatherDisplay:10.37 W/m2 RA
04:31 39.0 °F 35.2 °F 30.19 in ESE 3.5 mph 3.5 mph 86% 0.04 in WeatherDisplay:10.37 W/m2
04:36 39.0 °F 35.2 °F 30.19 in ESE 3.5 mph 3.5 mph 86% 0.03 in WeatherDisplay:10.37 W/m2 CLR
04:41 39.0 °F 35.5 °F 30.18 in SE 3.5 mph 3.5 mph 87% 0.03 in WeatherDisplay:10.37 W/m2 CLR
04:46 38.9 °F 35.1 °F 30.19 in ESE 5.0 mph 5.0 mph 86% 0.02 in WeatherDisplay:10.37 W/m2 CLR
04:51 38.7 °F 34.9 °F 30.19 in SE 6.9 mph 6.9 mph 86% 0.01 in WeatherDisplay:10.37 W/m2 CLR
04:56 38.4 °F 34.6 °F 30.20 in SE 6.9 mph 6.9 mph 86% 0.02 in WeatherDisplay:10.37 W/m2 RA
05:01 38.2 °F 34.4 °F 30.20 in ESE 5.8 mph 5.8 mph 86% 0.02 in WeatherDisplay:10.37 W/m2 RA
05:06 38.0 °F 34.5 °F 30.20 in SE 4.6 mph 4.6 mph 87% 0.03 in WeatherDisplay:10.37 W/m2 RA
05:11 37.9 °F 34.4 °F 30.20 in SSE 4.0 mph 4.0 mph 87% 0.03 in WeatherDisplay:10.37 W/m2 RA
05:16 37.7 °F 34.2 °F 30.20 in SSE 3.5 mph 4.0 mph 87% 0.03 in WeatherDisplay:10.37 W/m2 CLR
05:21 37.6 °F 34.1 °F 30.20 in SSE 4.0 mph 4.0 mph 87% 0.02 in WeatherDisplay:10.37 W/m2 CLR
05:26 37.5 °F 34.0 °F 30.20 in SE 3.5 mph 3.5 mph 87% 0.02 in WeatherDisplay:10.37 W/m2 CLR
05:31 37.4 °F 34.2 °F 30.22 in SE 2.3 mph 2.3 mph 88% 0.02 in WeatherDisplay:10.37 W/m2 CLR
05:36 37.4 °F 34.2 °F 30.22 in SE 3.5 mph 3.5 mph 88% 0.02 in WeatherDisplay:10.37 W/m2 CLR
05:41 37.4 °F 34.2 °F 30.22 in SE 3.5 mph 3.5 mph 88% 0.02 in WeatherDisplay:10.37 W/m2 CLR
05:46 37.4 °F 34.2 °F 30.23 in SE 3.5 mph 3.5 mph 88% 0.02 in WeatherDisplay:10.37 W/m2 CLR
05:51 37.3 °F 33.8 °F 30.23 in SE 2.3 mph 2.3 mph 87% 0.02 in WeatherDisplay:10.37 W/m2 CLR
05:56 37.4 °F 34.2 °F 30.23 in SE 2.3 mph 2.3 mph 88% 0.01 in WeatherDisplay:10.37 W/m2 CLR
06:01 37.4 °F 34.2 °F 30.23 in SE 2.3 mph 2.3 mph 88% 0.02 in WeatherDisplay:10.37 W/m2 RA
06:06 37.4 °F 34.2 °F 30.23 in SE 1.2 mph 1.2 mph 88% 0.01 in WeatherDisplay:10.37 W/m2 RA
06:11 37.4 °F 34.2 °F 30.23 in SE 2.0 mph 2.0 mph 88% 0.01 in WeatherDisplay:10.37 W/m2
06:16 37.5 °F 34.3 °F 30.23 in SE 1.2 mph 1.2 mph 88% 0.01 in WeatherDisplay:10.37 W/m2 CLR
06:21 37.5 °F 34.3 °F 30.24 in SE 1.2 mph 1.2 mph 88% 0.01 in WeatherDisplay:10.37 W/m2 CLR
06:26 37.6 °F 34.4 °F 30.24 in SE 2.0 mph 2.0 mph 88% 0.01 in WeatherDisplay:10.37 W/m2 CLR
06:31 37.6 °F 34.4 °F 30.24 in SE 3.5 mph 3.5 mph 88% 0.02 in WeatherDisplay:10.37 W/m2 RA
06:36 37.7 °F 34.5 °F 30.24 in SE 3.5 mph 3.5 mph 88% 0.02 in WeatherDisplay:10.37 W/m2 RA
06:41 37.7 °F 34.5 °F 30.25 in SE 2.3 mph 2.3 mph 88% 0.02 in WeatherDisplay:10.37 W/m2 CLR
06:46 37.7 °F 34.5 °F 30.25 in SE 3.5 mph 3.5 mph 88% 0.02 in WeatherDisplay:10.37 W/m2 CLR
06:51 37.7 °F 34.5 °F 30.25 in SE 2.3 mph 2.3 mph 88% 0.02 in WeatherDisplay:10.37 W/m2 CLR
06:56 37.7 °F 34.5 °F 30.25 in SE 2.3 mph 2.3 mph 88% 0.02 in WeatherDisplay:10.37 W/m2 CLR
07:01 37.7 °F 34.5 °F 30.25 in SE 2.3 mph 2.3 mph 88% 0.01 in WeatherDisplay:10.37 W/m2 CLR
07:06 37.7 °F 34.5 °F 30.25 in SE 3.5 mph 3.5 mph 88% 0.01 in WeatherDisplay:10.37 W/m2 CLR
07:11 37.7 °F 34.5 °F 30.25 in SE 2.3 mph 2.3 mph 88% 0.01 in WeatherDisplay:10.37 W/m2 CLR
07:16 37.7 °F 34.5 °F 30.26 in SE 1.2 mph 1.2 mph 88% 0.01 in WeatherDisplay:10.37 W/m2 CLR
07:21 37.8 °F 34.6 °F 30.26 in SE 1.2 mph 1.2 mph 88% 0.01 in WeatherDisplay:10.37 W/m2 CLR
07:26 37.8 °F 34.6 °F 30.26 in SE 2.3 mph 2.3 mph 88% 0.01 in WeatherDisplay:10.37 W/m2 CLR
07:31 37.8 °F 34.6 °F 30.26 in SE 2.3 mph 2.3 mph 88% 0.00 in WeatherDisplay:10.37 W/m2 CLR
07:36 37.8 °F 34.3 °F 30.26 in SE 2.3 mph 2.3 mph 87% 0.00 in WeatherDisplay:10.37 W/m2 CLR
07:41 37.7 °F 34.2 °F 30.26 in SE 2.3 mph 2.3 mph 87% 0.00 in WeatherDisplay:10.37 W/m2 CLR
07:46 37.8 °F 34.3 °F 30.26 in SE 1.2 mph   87% 0.00 in WeatherDisplay:10.37 W/m2 CLR
07:51 37.9 °F 34.7 °F 30.26 in Calm     88% 0.00 in WeatherDisplay:10.37 W/m2 CLR
07:57 38.1 °F 34.6 °F 30.26 in SE 1.2 mph 1.2 mph 87% 0.01 in WeatherDisplay:10.37 W/m2 RA
08:02 38.2 °F 34.7 °F 30.26 in Calm     87% 0.01 in WeatherDisplay:10.37 W/m2 RA
08:07 38.4 °F 35.2 °F 30.26 in ESE 3.5 mph 3.5 mph 88% 0.01 in WeatherDisplay:10.37 W/m2
08:12 38.5 °F 35.0 °F 30.26 in Calm   0.1 mph 87% 0.01 in WeatherDisplay:10.37 W/m2 CLR
08:17 38.7 °F 35.2 °F 30.26 in ESE 2.0 mph 2.0 mph 87% 0.01 in WeatherDisplay:10.37 W/m2 CLR
08:22 38.9 °F 35.4 °F 30.26 in ESE 1.2 mph 1.2 mph 87% 0.01 in WeatherDisplay:10.37 W/m2 CLR
08:27 39.2 °F 35.7 °F 30.26 in Calm     87% 0.01 in WeatherDisplay:10.37 W/m2 CLR
08:32 39.5 °F 36.2 °F 30.25 in ESE 1.2 mph   88% 0.01 in WeatherDisplay:10.37 W/m2 CLR
08:37 39.8 °F 36.2 °F 30.25 in ESE 1.2 mph 1.2 mph 87% 0.01 in WeatherDisplay:10.37 W/m2 CLR
08:42 40.1 °F 36.5 °F 30.25 in ESE 1.2 mph 1.2 mph 87% 0.01 in WeatherDisplay:10.37 W/m2 CLR
08:47 40.3 °F 36.4 °F 30.25 in SE 2.3 mph 2.3 mph 86% 0.01 in WeatherDisplay:10.37 W/m2 CLR
08:52 40.5 °F 36.6 °F 30.25 in Calm     86% 0.01 in WeatherDisplay:10.37 W/m2 CLR
08:57 40.6 °F 36.1 °F 30.25 in SE 2.3 mph 2.3 mph 84% 0.00 in WeatherDisplay:10.37 W/m2 CLR
09:02 40.7 °F 36.5 °F 30.25 in SE 1.2 mph   85% 0.00 in WeatherDisplay:10.37 W/m2 CLR
09:07 40.9 °F 36.7 °F 30.25 in Calm     85% 0.00 in WeatherDisplay:10.37 W/m2 CLR
09:12 41.1 °F 36.9 °F 30.25 in SE 1.2 mph 1.2 mph 85% 0.00 in WeatherDisplay:10.37 W/m2 CLR
09:17 41.2 °F 36.7 °F 30.25 in Calm     84% 0.00 in WeatherDisplay:10.37 W/m2 CLR
09:22 41.3 °F 36.5 °F 30.25 in SE 1.2 mph 1.2 mph 83% 0.00 in WeatherDisplay:10.37 W/m2 CLR
09:27 41.4 °F 36.9 °F 30.25 in SE 1.0 mph   84% 0.00 in WeatherDisplay:10.37 W/m2 CLR
09:32 41.6 °F 36.5 °F 30.25 in SE 3.5 mph 3.5 mph 82% 0.00 in WeatherDisplay:10.37 W/m2 CLR
09:37 41.8 °F 37.0 °F 30.25 in SE 1.2 mph   83% 0.00 in WeatherDisplay:10.37 W/m2 CLR
09:42 42.2 °F 37.4 °F 30.25 in SE 3.5 mph 3.5 mph 83% 0.00 in WeatherDisplay:10.37 W/m2 CLR
09:47 42.5 °F 38.0 °F 30.24 in SE 3.5 mph 3.5 mph 84% 0.00 in WeatherDisplay:10.37 W/m2 CLR
09:52 42.8 °F 37.7 °F 30.24 in SE 1.2 mph   82% 0.00 in WeatherDisplay:10.37 W/m2 CLR
09:57 43.1 °F 38.3 °F 30.25 in Calm     83% 0.00 in WeatherDisplay:10.37 W/m2 CLR
10:02 43.4 °F 37.3 °F 30.25 in SE 3.5 mph 3.5 mph 79% 0.00 in WeatherDisplay:10.37 W/m2 CLR
10:07 43.6 °F 37.5 °F 30.25 in SSE 3.5 mph 3.5 mph 79% 0.00 in WeatherDisplay:10.37 W/m2 CLR
10:12 44.2 °F 39.4 °F 30.24 in SSE 2.3 mph 2.3 mph 83% 0.00 in WeatherDisplay:10.37 W/m2 CLR
10:17 45.2 °F 39.1 °F 30.23 in SSW 3.5 mph 3.5 mph 79% 0.00 in WeatherDisplay:10.37 W/m2 CLR
10:22 45.3 °F 38.5 °F 30.24 in West 3.5 mph 3.5 mph 77% 0.00 in WeatherDisplay:10.37 W/m2 CLR
10:27 45.1 °F 38.3 °F 30.24 in WNW 1.2 mph   77% 0.00 in WeatherDisplay:10.37 W/m2 CLR
10:32 45.0 °F 38.2 °F 30.24 in WSW 1.2 mph 1.2 mph 77% 0.00 in WeatherDisplay:10.37 W/m2 CLR
10:37 45.1 °F 38.3 °F 30.24 in West 1.2 mph   77% 0.00 in WeatherDisplay:10.37 W/m2 CLR
10:42 45.4 °F 38.9 °F 30.24 in West 1.0 mph   78% 0.00 in WeatherDisplay:10.37 W/m2 CLR
10:47 45.4 °F 37.9 °F 30.24 in WSW 2.3 mph 2.3 mph 75% 0.00 in WeatherDisplay:10.37 W/m2 CLR
10:52 45.4 °F 37.2 °F 30.24 in WSW 3.5 mph 3.5 mph 73% 0.00 in WeatherDisplay:10.37 W/m2 CLR
10:57 45.5 °F 38.4 °F 30.24 in WSW 2.3 mph 2.3 mph 76% 0.00 in WeatherDisplay:10.37 W/m2 CLR
11:02 45.6 °F 37.1 °F 30.24 in South 3.5 mph 3.5 mph 72% 0.00 in WeatherDisplay:10.37 W/m2 CLR
11:07 45.9 °F 36.7 °F 30.24 in South 1.2 mph 1.2 mph 70% 0.00 in WeatherDisplay:10.37 W/m2 CLR
11:12 46.2 °F 35.1 °F 30.24 in SSE 3.5 mph 3.5 mph 65% 0.00 in WeatherDisplay:10.37 W/m2 CLR
11:17 46.4 °F 37.1 °F 30.24 in South 3.5 mph 3.5 mph 70% 0.00 in WeatherDisplay:10.37 W/m2 CLR
11:22 46.9 °F 36.5 °F 30.24 in West 3.5 mph 3.5 mph 67% 0.00 in WeatherDisplay:10.37 W/m2 CLR
11:27 47.2 °F 38.3 °F 30.24 in WNW 1.2 mph 1.2 mph 71% 0.00 in WeatherDisplay:10.37 W/m2 CLR
11:32 47.6 °F 37.2 °F 30.22 in WNW 2.3 mph 2.3 mph 67% 0.00 in WeatherDisplay:10.37 W/m2 CLR
11:37 47.9 °F 36.7 °F 30.22 in WNW 3.5 mph 3.5 mph 65% 0.00 in WeatherDisplay:10.37 W/m2 CLR
11:42 47.8 °F 37.0 °F 30.22 in NNW 3.5 mph 3.5 mph 66% 0.00 in WeatherDisplay:10.37 W/m2 CLR
11:47 47.8 °F 37.4 °F 30.22 in WNW 3.5 mph 3.5 mph 67% 0.00 in WeatherDisplay:10.37 W/m2 CLR
11:52 47.8 °F 36.6 °F 30.22 in West 3.5 mph 3.5 mph 65% 0.00 in WeatherDisplay:10.37 W/m2 CLR
11:57 47.9 °F 37.1 °F 30.22 in WNW 3.5 mph 3.5 mph 66% 0.00 in WeatherDisplay:10.37 W/m2 CLR
12:02 48.0 °F 37.6 °F 30.22 in West 1.2 mph 1.2 mph 67% 0.00 in WeatherDisplay:10.37 W/m2 CLR
12:07 48.3 °F 38.2 °F 30.22 in West 1.2 mph 1.2 mph 68% 0.00 in WeatherDisplay:10.37 W/m2 CLR
12:12 48.9 °F 38.0 °F 30.21 in West 3.5 mph   66% 0.00 in WeatherDisplay:10.37 W/m2 CLR
12:17 49.1 °F 37.0 °F 30.20 in SW 4.0 mph 4.0 mph 63% 0.00 in WeatherDisplay:10.37 W/m2 CLR
12:22 48.8 °F 37.2 °F 30.20 in SSW 5.8 mph 5.8 mph 64% 0.00 in WeatherDisplay:10.37 W/m2 CLR
12:27 48.8 °F 37.2 °F 30.20 in SSE 3.5 mph 3.5 mph 64% 0.00 in WeatherDisplay:10.37 W/m2 CLR
12:32 48.6 °F 37.0 °F 30.20 in South 6.9 mph 6.9 mph 64% 0.00 in WeatherDisplay:10.37 W/m2 CLR
12:37 49.1 °F 35.8 °F 30.20 in SE 3.5 mph 3.5 mph 60% 0.00 in WeatherDisplay:10.37 W/m2 CLR
12:42 49.6 °F 35.8 °F 30.20 in SE 4.6 mph 4.6 mph 59% 0.00 in WeatherDisplay:10.37 W/m2 CLR
12:47 49.2 °F 36.3 °F 30.19 in East 2.3 mph 2.3 mph 61% 0.00 in WeatherDisplay:10.37 W/m2 CLR
12:52 49.2 °F 37.5 °F 30.19 in East 3.5 mph 3.5 mph 64% 0.00 in WeatherDisplay:10.37 W/m2 CLR
12:57 49.7 °F 36.4 °F 30.19 in SSE 4.6 mph 4.6 mph 60% 0.00 in WeatherDisplay:10.37 W/m2 CLR
13:02 50.2 °F 37.7 °F 30.19 in SE 4.6 mph 4.6 mph 62% 0.00 in WeatherDisplay:10.37 W/m2 CLR
13:07 50.8 °F 37.4 °F 30.19 in SSW 1.2 mph 1.2 mph 60% 0.00 in WeatherDisplay:10.37 W/m2 CLR
13:12 51.2 °F 37.8 °F 30.19 in East 5.0 mph 5.0 mph 60% 0.00 in WeatherDisplay:10.37 W/m2 CLR
13:17 50.8 °F 37.8 °F 30.19 in ESE 9.2 mph 9.2 mph 61% 0.00 in WeatherDisplay:10.37 W/m2 CLR
13:22 51.2 °F 39.0 °F 30.18 in SE 8.0 mph 8.0 mph 63% 0.00 in WeatherDisplay:10.37 W/m2 CLR
13:27 51.4 °F 36.2 °F 30.18 in SE 4.6 mph 4.6 mph 56% 0.00 in WeatherDisplay:10.37 W/m2 CLR
13:32 51.5 °F 36.3 °F 30.17 in SSE 4.6 mph 4.6 mph 56% 0.00 in WeatherDisplay:10.37 W/m2 CLR
13:37 51.8 °F 37.0 °F 30.17 in South 3.5 mph 3.5 mph 57% 0.00 in WeatherDisplay:10.37 W/m2 CLR
13:42 52.3 °F 37.1 °F 30.16 in SE 6.9 mph 6.9 mph 56% 0.00 in WeatherDisplay:10.37 W/m2 CLR
13:48 52.8 °F 36.1 °F 30.16 in SSW 6.9 mph 6.9 mph 53% 0.00 in WeatherDisplay:10.37 W/m2 CLR
13:52 53.3 °F 37.1 °F 30.16 in SE 6.0 mph 6.0 mph 54% 0.00 in WeatherDisplay:10.37 W/m2 CLR
13:58 53.2 °F 36.0 °F 30.16 in NW 4.6 mph 4.6 mph 52% 0.00 in WeatherDisplay:10.37 W/m2 CLR
14:03 53.6 °F 34.9 °F 30.15 in SSW 2.0 mph 2.0 mph 49% 0.00 in WeatherDisplay:10.37 W/m2 CLR
14:08 54.0 °F 36.3 °F 30.15 in SE 4.0 mph 4.0 mph 51% 0.00 in WeatherDisplay:10.37 W/m2 CLR
14:13 53.1 °F 35.9 °F 30.16 in East 4.6 mph 4.6 mph 52% 0.00 in WeatherDisplay:10.37 W/m2 CLR
14:18 52.9 °F 35.2 °F 30.16 in South 5.0 mph 5.0 mph 51% 0.00 in WeatherDisplay:10.37 W/m2 CLR
14:23 53.5 °F 38.2 °F 30.14 in South 4.0 mph 4.0 mph 56% 0.00 in WeatherDisplay:10.37 W/m2 CLR
14:28 54.5 °F 37.2 °F 30.14 in South 3.5 mph 3.5 mph 52% 0.00 in WeatherDisplay:10.37 W/m2 CLR
14:33 54.4 °F 33.5 °F 30.14 in South 4.6 mph 4.6 mph 45% 0.00 in WeatherDisplay:10.37 W/m2 CLR
14:38 53.8 °F 33.5 °F 30.14 in South 4.6 mph 4.6 mph 46% 0.00 in WeatherDisplay:10.37 W/m2 CLR
14:43 54.0 °F 33.1 °F 30.14 in ESE 4.6 mph 4.6 mph 45% 0.00 in WeatherDisplay:10.37 W/m2 CLR
14:48 54.0 °F 35.8 °F 30.14 in SSW 8.1 mph 8.1 mph 50% 0.00 in WeatherDisplay:10.37 W/m2 CLR
14:53 54.5 °F 37.7 °F 30.13 in SW 3.5 mph 3.5 mph 53% 0.00 in WeatherDisplay:10.37 W/m2 CLR
14:58 55.0 °F 36.7 °F 30.12 in SSE 2.3 mph 2.3 mph 50% 0.00 in WeatherDisplay:10.37 W/m2 CLR
15:02 55.3 °F 35.4 °F 30.12 in South 6.9 mph 6.9 mph 47% 0.00 in WeatherDisplay:10.37 W/m2 CLR
15:07 55.1 °F 34.1 °F 30.12 in ESE 6.9 mph 6.9 mph 45% 0.00 in WeatherDisplay:10.37 W/m2 CLR
15:12 54.5 °F 34.1 °F 30.12 in ESE 5.8 mph 5.8 mph 46% 0.00 in WeatherDisplay:10.37 W/m2 CLR
15:17 54.9 °F 34.5 °F 30.12 in SE 6.9 mph 6.9 mph 46% 0.00 in WeatherDisplay:10.37 W/m2 CLR
15:22 55.5 °F 35.6 °F 30.11 in SW 10.4 mph 10.4 mph 47% 0.00 in WeatherDisplay:10.37 W/m2 CLR
15:27 55.4 °F 33.8 °F 30.10 in SE 5.8 mph 5.8 mph 44% 0.00 in WeatherDisplay:10.37 W/m2 CLR
15:32 55.3 °F 34.9 °F 30.11 in SE 3.5 mph 3.5 mph 46% 0.00 in WeatherDisplay:10.37 W/m2 CLR
15:37 55.5 °F 33.3 °F 30.10 in South 6.9 mph 6.9 mph 43% 0.00 in WeatherDisplay:10.37 W/m2 CLR
15:39 55.5 °F 32.2 °F 30.10 in South 4.6 mph 4.6 mph 41% 0.00 in WeatherDisplay:10.37 W/m2 CLR
15:43 55.8 °F 32.4 °F 30.10 in South 3.5 mph 3.5 mph 41% 0.00 in WeatherDisplay:10.37 W/m2 CLR
15:48 56.0 °F 32.0 °F 30.10 in South 4.6 mph 4.6 mph 40% 0.00 in WeatherDisplay:10.37 W/m2 CLR
15:54 56.4 °F 34.2 °F 30.09 in South 5.8 mph 5.8 mph 43% 0.00 in WeatherDisplay:10.37 W/m2 CLR
15:59 57.2 °F 34.9 °F 30.09 in SSW 3.5 mph 3.5 mph 43% 0.00 in WeatherDisplay:10.37 W/m2 CLR
16:04 57.4 °F 33.9 °F 30.09 in South 5.8 mph 5.8 mph 41% 0.00 in WeatherDisplay:10.37 W/m2 CLR
16:09 57.1 °F 34.8 °F 30.10 in SSE 8.1 mph 8.1 mph 43% 0.00 in WeatherDisplay:10.37 W/m2 CLR
16:14 56.8 °F 33.3 °F 30.10 in South 3.5 mph 3.5 mph 41% 0.00 in WeatherDisplay:10.37 W/m2 CLR
16:19 57.1 °F 32.4 °F 30.10 in SSW 3.5 mph 3.5 mph 39% 0.00 in WeatherDisplay:10.37 W/m2 CLR
16:24 57.3 °F 34.4 °F 30.10 in SSE 5.8 mph 5.8 mph 42% 0.00 in WeatherDisplay:10.37 W/m2 CLR
16:29 57.2 °F 33.7 °F 30.10 in ESE 4.6 mph 4.6 mph 41% 0.00 in WeatherDisplay:10.37 W/m2 CLR
16:34 57.3 °F 31.9 °F 30.10 in SE 9.2 mph 9.2 mph 38% 0.00 in WeatherDisplay:10.37 W/m2 CLR
16:39 57.4 °F 34.5 °F 30.09 in SSE 6.9 mph 6.9 mph 42% 0.00 in WeatherDisplay:10.37 W/m2 CLR
16:44 57.0 °F 33.5 °F 30.09 in ESE 11.5 mph 11.5 mph 41% 0.00 in WeatherDisplay:10.37 W/m2 CLR
16:49 56.6 °F 32.5 °F 30.09 in SSE 6.9 mph 6.9 mph 40% 0.00 in WeatherDisplay:10.37 W/m2 CLR
16:54 56.4 °F 31.7 °F 30.09 in ESE 3.5 mph 3.5 mph 39% 0.00 in WeatherDisplay:10.37 W/m2 CLR
16:59 56.5 °F 31.8 °F 30.08 in SE 6.0 mph 6.0 mph 39% 0.00 in WeatherDisplay:10.37 W/m2 CLR
17:04 56.4 °F 32.4 °F 30.10 in SE 4.6 mph 4.6 mph 40% 0.00 in WeatherDisplay:10.37 W/m2 CLR
17:09 56.6 °F 32.5 °F 30.09 in SSE 9.2 mph 9.2 mph 40% 0.00 in WeatherDisplay:10.37 W/m2 CLR
17:14 56.7 °F 30.0 °F 30.08 in SE 3.5 mph 3.5 mph 36% 0.00 in WeatherDisplay:10.37 W/m2 CLR
17:19 56.8 °F 30.1 °F 30.08 in SSE 10.4 mph 10.4 mph 36% 0.00 in WeatherDisplay:10.37 W/m2 CLR
17:24 56.8 °F 31.4 °F 30.08 in SSE 4.6 mph 4.6 mph 38% 0.00 in WeatherDisplay:10.37 W/m2 CLR
17:29 57.2 °F 33.1 °F 30.08 in ESE 7.0 mph 7.0 mph 40% 0.00 in WeatherDisplay:10.37 W/m2 CLR
17:34 57.0 °F 31.6 °F 30.08 in ENE 5.8 mph 5.8 mph 38% 0.00 in WeatherDisplay:10.37 W/m2 CLR
17:39 56.9 °F 32.2 °F 30.08 in SE 5.0 mph 5.0 mph 39% 0.00 in WeatherDisplay:10.37 W/m2 CLR
17:44 57.0 °F 31.6 °F 30.08 in SSE 6.0 mph 6.0 mph 38% 0.00 in WeatherDisplay:10.37 W/m2 CLR
17:49 57.1 °F 31.0 °F 30.08 in SSE 5.8 mph 5.8 mph 37% 0.00 in WeatherDisplay:10.37 W/m2 CLR
17:54 57.2 °F 31.1 °F 30.08 in SSE 4.6 mph 4.6 mph 37% 0.00 in WeatherDisplay:10.37 W/m2 CLR
17:59 57.2 °F 29.8 °F 30.08 in South 5.0 mph 5.0 mph 35% 0.00 in WeatherDisplay:10.37 W/m2 CLR
18:04 57.1 °F 29.7 °F 30.08 in SE 3.5 mph 3.5 mph 35% 0.00 in WeatherDisplay:10.37 W/m2 CLR
18:09 57.1 °F 31.0 °F 30.08 in SSE 5.8 mph 5.8 mph 37% 0.00 in WeatherDisplay:10.37 W/m2 CLR
18:14 57.1 °F 31.7 °F 30.07 in SE 3.5 mph 3.5 mph 38% 0.00 in WeatherDisplay:10.37 W/m2 CLR
18:19 57.1 °F 32.4 °F 30.07 in ESE 4.6 mph 4.6 mph 39% 0.00 in WeatherDisplay:10.37 W/m2 CLR
18:25 57.0 °F 30.3 °F 30.07 in SE 9.0 mph 9.0 mph 36% 0.00 in WeatherDisplay:10.37 W/m2 CLR
18:30 56.8 °F 31.4 °F 30.07 in SE 4.6 mph 4.6 mph 38% 0.00 in WeatherDisplay:10.37 W/m2 CLR
18:35 56.8 °F 32.1 °F 30.06 in SE 6.9 mph 6.9 mph 39% 0.00 in WeatherDisplay:10.37 W/m2 CLR
18:40 56.6 °F 30.6 °F 30.07 in SE 6.9 mph 6.9 mph 37% 0.00 in WeatherDisplay:10.37 W/m2 CLR
18:45 56.4 °F 32.4 °F 30.06 in SSE 5.0 mph 5.0 mph 40% 0.00 in WeatherDisplay:10.37 W/m2 CLR
18:50 56.1 °F 33.3 °F 30.06 in ESE 6.9 mph 6.9 mph 42% 0.00 in WeatherDisplay:10.37 W/m2 CLR
18:55 55.8 °F 33.0 °F 30.06 in SE 6.9 mph 6.9 mph 42% 0.00 in WeatherDisplay:10.37 W/m2 CLR
19:00 55.6 °F 32.8 °F 30.06 in ESE 4.6 mph 4.6 mph 42% 0.00 in WeatherDisplay:10.37 W/m2 CLR
19:05 55.4 °F 33.3 °F 30.07 in SE 4.6 mph 4.6 mph 43% 0.00 in WeatherDisplay:10.37 W/m2 CLR
19:10 55.3 °F 33.2 °F 30.07 in ESE 4.6 mph 4.6 mph 43% 0.00 in WeatherDisplay:10.37 W/m2 CLR
19:15 55.1 °F 32.4 °F 30.07 in SE 5.8 mph 5.8 mph 42% 0.00 in WeatherDisplay:10.37 W/m2 CLR
19:20 54.9 °F 33.4 °F 30.07 in SE 3.5 mph 3.5 mph 44% 0.00 in WeatherDisplay:10.37 W/m2 CLR
19:25 54.6 °F 33.1 °F 30.07 in SE 5.8 mph 5.8 mph 44% 0.00 in WeatherDisplay:10.37 W/m2 CLR
19:30 54.4 °F 33.5 °F 30.07 in SE 4.6 mph 4.6 mph 45% 0.00 in WeatherDisplay:10.37 W/m2 CLR
19:35 54.0 °F 34.2 °F 30.06 in SE 3.5 mph 3.5 mph 47% 0.00 in WeatherDisplay:10.37 W/m2 CLR
19:40 53.7 °F 34.5 °F 30.06 in SE 3.5 mph 3.5 mph 48% 0.00 in WeatherDisplay:10.37 W/m2 CLR
19:45 53.2 °F 35.0 °F 30.07 in SSE 3.5 mph 3.5 mph 50% 0.00 in WeatherDisplay:10.37 W/m2 CLR
19:50 52.8 °F 35.2 °F 30.08 in SSE 3.5 mph 3.5 mph 51% 0.00 in WeatherDisplay:10.37 W/m2 CLR
19:55 52.3 °F 35.2 °F 30.08 in SSE 3.5 mph 3.5 mph 52% 0.00 in WeatherDisplay:10.37 W/m2 CLR
20:00 51.9 °F 34.8 °F 30.08 in SSE 3.5 mph 3.5 mph 52% 0.00 in WeatherDisplay:10.37 W/m2 CLR
20:05 51.5 °F 34.9 °F 30.07 in SSE 3.5 mph 3.5 mph 53% 0.00 in WeatherDisplay:10.37 W/m2 CLR
20:10 51.1 °F 35.0 °F 30.07 in SSE 2.3 mph 2.3 mph 54% 0.00 in WeatherDisplay:10.37 W/m2 CLR
20:15 50.6 °F 34.6 °F 30.07 in SSE 4.6 mph 4.6 mph 54% 0.00 in WeatherDisplay:10.37 W/m2 CLR
20:20 50.2 °F 34.6 °F 30.08 in SSE 3.5 mph 3.5 mph 55% 0.00 in WeatherDisplay:10.37 W/m2 CLR
20:25 50.0 °F 34.0 °F 30.08 in SE 4.6 mph 4.6 mph 54% 0.00 in WeatherDisplay:10.37 W/m2 CLR
20:30 49.8 °F 34.3 °F 30.08 in SSE 3.5 mph 3.5 mph 55% 0.00 in WeatherDisplay:10.37 W/m2 CLR
20:35 49.6 °F 34.5 °F 30.07 in SSE 3.5 mph 3.5 mph 56% 0.00 in WeatherDisplay:10.37 W/m2 CLR
20:40 49.4 °F 34.3 °F 30.07 in SSE 4.6 mph 4.6 mph 56% 0.00 in WeatherDisplay:10.37 W/m2 CLR
20:45 49.2 °F 34.6 °F 30.07 in SE 4.6 mph 4.6 mph 57% 0.00 in WeatherDisplay:10.37 W/m2 CLR
20:50 48.9 °F 34.8 °F 30.07 in SE 6.9 mph 6.9 mph 58% 0.00 in WeatherDisplay:10.37 W/m2 CLR
20:55 48.7 °F 34.6 °F 30.07 in SE 4.6 mph 4.6 mph 58% 0.00 in WeatherDisplay:10.37 W/m2 CLR
21:00 48.6 °F 34.9 °F 30.07 in SSE 4.6 mph 4.6 mph 59% 0.00 in WeatherDisplay:10.37 W/m2 CLR
21:05 48.5 °F 34.4 °F 30.06 in SE 5.8 mph 5.8 mph 58% 0.00 in WeatherDisplay:10.37 W/m2 CLR
21:10 48.4 °F 34.3 °F 30.07 in SE 5.0 mph 5.0 mph 58% 0.00 in WeatherDisplay:10.37 W/m2 CLR
21:16 48.4 °F 34.3 °F 30.07 in SE 4.6 mph 4.6 mph 58% 0.00 in WeatherDisplay:10.37 W/m2 CLR
21:21 48.4 °F 34.3 °F 30.07 in SE 6.9 mph 6.9 mph 58% 0.00 in WeatherDisplay:10.37 W/m2 CLR
21:26 48.3 °F 34.6 °F 30.07 in SSE 4.6 mph 4.6 mph 59% 0.00 in WeatherDisplay:10.37 W/m2 CLR
21:31 48.1 °F 34.4 °F 30.07 in SSE 6.9 mph 6.9 mph 59% 0.00 in WeatherDisplay:10.37 W/m2 CLR
21:36 47.6 °F 34.4 °F 30.07 in SE 4.6 mph 4.6 mph 60% 0.00 in WeatherDisplay:10.37 W/m2 CLR
21:41 47.3 °F 34.5 °F 30.07 in SSE 9.2 mph 9.2 mph 61% 0.00 in WeatherDisplay:10.37 W/m2 CLR
21:46 47.0 °F 34.2 °F 30.07 in SSE 3.5 mph 3.5 mph 61% 0.00 in WeatherDisplay:10.37 W/m2 CLR
21:51 46.7 °F 34.4 °F 30.07 in SE 4.6 mph 4.6 mph 62% 0.00 in WeatherDisplay:10.37 W/m2 CLR
21:56 46.4 °F 34.5 °F 30.07 in SSE 8.1 mph 8.1 mph 63% 0.00 in WeatherDisplay:10.37 W/m2 CLR
22:01 46.2 °F 34.3 °F 30.09 in SE 5.8 mph 5.8 mph 63% 0.00 in WeatherDisplay:10.37 W/m2 CLR
22:06 46.1 °F 34.2 °F 30.07 in SE 5.0 mph 5.0 mph 63% 0.00 in WeatherDisplay:10.37 W/m2 CLR
22:11 46.1 °F 33.8 °F 30.06 in ESE 6.9 mph 6.9 mph 62% 0.00 in WeatherDisplay:10.37 W/m2 CLR
22:16 46.2 °F 33.5 °F 30.06 in SSE 10.4 mph 10.4 mph 61% 0.00 in WeatherDisplay:10.37 W/m2 CLR
22:21 46.3 °F 33.6 °F 30.06 in SE 6.0 mph 6.0 mph 61% 0.00 in WeatherDisplay:10.37 W/m2 CLR
22:26 46.3 °F 33.6 °F 30.05 in SE 7.0 mph 7.0 mph 61% 0.00 in WeatherDisplay:10.37 W/m2 CLR
22:31 46.0 °F 33.3 °F 30.05 in SSE 5.8 mph 5.8 mph 61% 0.00 in WeatherDisplay:10.37 W/m2 CLR
22:36 45.8 °F 33.1 °F 30.05 in SSE 4.6 mph 4.6 mph 61% 0.00 in WeatherDisplay:10.37 W/m2 CLR
22:41 45.6 °F 33.3 °F 30.04 in SE 5.8 mph 5.8 mph 62% 0.00 in WeatherDisplay:10.37 W/m2 CLR
22:46 45.4 °F 33.1 °F 30.05 in SE 6.9 mph 6.9 mph 62% 0.00 in WeatherDisplay:10.37 W/m2 CLR
22:51 45.1 °F 33.2 °F 30.05 in ESE 4.6 mph 4.6 mph 63% 0.00 in WeatherDisplay:10.37 W/m2 CLR
22:56 44.9 °F 33.5 °F 30.04 in ESE 4.6 mph 4.6 mph 64% 0.00 in WeatherDisplay:10.37 W/m2 CLR
23:01 44.6 °F 33.2 °F 30.03 in SE 5.8 mph 5.8 mph 64% 0.00 in WeatherDisplay:10.37 W/m2 CLR
23:06 44.3 °F 33.3 °F 30.03 in SE 5.8 mph 5.8 mph 65% 0.00 in WeatherDisplay:10.37 W/m2 CLR
23:11 44.1 °F 33.1 °F 30.03 in SE 3.5 mph 3.5 mph 65% 0.00 in WeatherDisplay:10.37 W/m2 CLR
23:16 44.0 °F 33.0 °F 30.03 in SE 5.0 mph 5.0 mph 65% 0.00 in WeatherDisplay:10.37 W/m2 CLR
23:21 44.1 °F 32.7 °F 30.02 in SSE 9.2 mph 9.2 mph 64% 0.00 in WeatherDisplay:10.37 W/m2 CLR
23:26 44.3 °F 32.9 °F 30.02 in SSE 3.5 mph 3.5 mph 64% 0.00 in WeatherDisplay:10.37 W/m2 CLR
23:32 44.0 °F 33.4 °F 30.03 in South 3.5 mph 3.5 mph 66% 0.00 in WeatherDisplay:10.37 W/m2 CLR
23:37 43.8 °F 33.6 °F 30.02 in South 3.5 mph 3.5 mph 67% 0.00 in WeatherDisplay:10.37 W/m2 CLR
23:41 43.6 °F 33.7 °F 30.02 in South 1.2 mph   68% 0.00 in WeatherDisplay:10.37 W/m2 CLR
23:47 43.4 °F 33.9 °F 30.03 in South 1.2 mph   69% 0.00 in WeatherDisplay:10.37 W/m2 CLR
23:52 43.2 °F 33.7 °F 30.03 in Calm     69% 0.00 in WeatherDisplay:10.37 W/m2 CLR
23:57 43.0 °F 33.9 °F 30.03 in South 1.2 mph 1.2 mph 70% 0.00 in WeatherDisplay:10.37 W/m2 CLR
Windsor Co Weather
Compliments of Weather Underground - 3 mb